Time;durP1;ratioP1;P1;durP2;ratioP2;P2;SDS_P1;SDS_P2;PMS_P1;PMS_P2;Temp;Humidity;BMP_temperature;BMP_pressure;BME280_temperature;BME280_humidity;BME280_pressure;Samples;Min_cycle;Max_cycle;Signal;HPM_P1;HPM_P2
2023/03/16 00:00:46;;;;;;;4.33;3.60;;;;;;;;;;4977508;28;20177;-85
2023/03/16 00:03:18;;;;;;;7.27;4.27;;;;;;;;;;4976985;28;20185;-84
2023/03/16 00:05:50;;;;;;;5.40;4.10;;;;;;;;;;4972718;28;20191;-84
2023/03/16 00:08:16;;;;;;;5.70;3.67;;;;;;;;;;4970267;28;20196;-84
2023/03/16 00:10:45;;;;;;;5.13;3.93;;;;;;;;;;4972960;28;20185;-84
2023/03/16 00:13:17;;;;;;;7.80;4.00;;;;;;;;;;4972969;28;20269;-84
2023/03/16 00:15:53;;;;;;;6.07;3.70;;;;;;;;;;4972621;28;20231;-84
2023/03/16 00:18:18;;;;;;;4.83;3.90;;;;;;;;;;4973342;28;20180;-84
2023/03/16 00:20:43;;;;;;;5.00;3.13;;;;;;;;;;4970337;28;20188;-83
2023/03/16 00:23:09;;;;;;;3.83;3.37;;;;;;;;;;4975325;28;20195;-83
2023/03/16 00:25:34;;;;;;;3.87;3.53;;;;;;;;;;4973561;28;20200;-83
2023/03/16 00:28:02;;;;;;;4.70;3.57;;;;;;;;;;4971886;28;20180;-83
2023/03/16 00:30:28;;;;;;;5.33;4.03;;;;;;;;;;4970307;28;20192;-83
2023/03/16 00:32:53;;;;;;;4.47;3.57;;;;;;;;;;4968330;28;20215;-83
2023/03/16 00:35:18;;;;;;;4.43;4.00;;;;;;;;;;4970743;28;20181;-83
2023/03/16 00:37:43;;;;;;;8.80;4.73;;;;;;;;;;4974030;28;20259;-83
2023/03/16 00:40:11;;;;;;;3.77;3.47;;;;;;;;;;4971685;28;20185;-83
2023/03/16 00:42:36;;;;;;;5.20;3.47;;;;;;;;;;4971344;28;20232;-82
2023/03/16 00:45:01;;;;;;;3.60;3.30;;;;;;;;;;4975000;28;20192;-82
2023/03/16 00:47:29;;;;;;;3.90;3.00;;;;;;;;;;4971215;28;20176;-82
2023/03/16 00:49:57;;;;;;;5.23;3.60;;;;;;;;;;4972634;28;20180;-82
2023/03/16 00:52:24;;;;;;;6.03;3.50;;;;;;;;;;4972857;28;20197;-82
2023/03/16 00:54:51;;;;;;;4.27;2.97;;;;;;;;;;4975726;28;20177;-82
2023/03/16 00:57:17;;;;;;;7.03;3.57;;;;;;;;;;4969861;28;20220;-81
2023/03/16 00:59:43;;;;;;;4.37;3.90;;;;;;;;;;4975969;28;20227;-81
2023/03/16 01:02:08;;;;;;;3.50;3.20;;;;;;;;;;4976548;28;20176;-81
2023/03/16 01:04:35;;;;;;;4.37;3.83;;;;;;;;;;4972359;28;20184;-81
2023/03/16 01:07:04;;;;;;;6.00;3.57;;;;;;;;;;4973792;28;20168;-81
2023/03/16 01:09:29;;;;;;;5.10;3.50;;;;;;;;;;4972451;28;20184;-81
2023/03/16 01:11:54;;;;;;;5.73;3.70;;;;;;;;;;4972204;28;20177;-81
2023/03/16 01:14:20;;;;;;;4.50;4.10;;;;;;;;;;4967616;28;20267;-81
2023/03/16 01:16:46;;;;;;;6.63;3.70;;;;;;;;;;4975392;28;20216;-81
2023/03/16 01:19:13;;;;;;;6.10;3.70;;;;;;;;;;4972361;28;20236;-81
2023/03/16 01:21:38;;;;;;;4.70;3.60;;;;;;;;;;4970323;28;20261;-81
2023/03/16 01:24:04;;;;;;;5.13;3.77;;;;;;;;;;4971414;28;20267;-80
2023/03/16 01:26:29;;;;;;;6.47;3.00;;;;;;;;;;4970581;28;20185;-80
2023/03/16 01:28:54;;;;;;;4.80;3.47;;;;;;;;;;4974511;28;20252;-80
2023/03/16 01:31:20;;;;;;;3.40;3.00;;;;;;;;;;4975475;28;20192;-80
2023/03/16 01:33:45;;;;;;;4.27;3.50;;;;;;;;;;4972501;28;20228;-80
2023/03/16 01:36:12;;;;;;;3.33;3.00;;;;;;;;;;4971687;28;20173;-80
2023/03/16 01:38:38;;;;;;;4.53;3.73;;;;;;;;;;4977711;28;20173;-80
2023/03/16 01:41:03;;;;;;;4.10;3.70;;;;;;;;;;4974869;28;20180;-80
2023/03/16 01:43:29;;;;;;;4.83;3.63;;;;;;;;;;4972423;28;20228;-80
2023/03/16 01:46:04;;;;;;;4.10;3.70;;;;;;;;;;4969623;28;20272;-80
2023/03/16 01:48:41;;;;;;;4.40;3.77;;;;;;;;;;4971828;28;20293;-79
2023/03/16 01:51:19;;;;;;;3.87;3.47;;;;;;;;;;4970748;28;20271;-80
2023/03/16 01:53:46;;;;;;;3.87;3.47;;;;;;;;;;4970374;28;20212;-80
2023/03/16 01:56:12;;;;;;;4.33;3.93;;;;;;;;;;4971314;28;20176;-80
2023/03/16 01:58:38;;;;;;;5.83;3.80;;;;;;;;;;4971115;28;20183;-80
2023/03/16 02:01:04;;;;;;;6.90;3.67;;;;;;;;;;4971935;28;20240;-79
2023/03/16 02:03:33;;;;;;;5.30;3.67;;;;;;;;;;4974188;28;20177;-80
2023/03/16 02:06:02;;;;;;;7.53;4.73;;;;;;;;;;4962927;28;20197;-79
2023/03/16 02:08:28;;;;;;;7.57;4.50;;;;;;;;;;4973014;28;20177;-79
2023/03/16 02:10:55;;;;;;;5.77;4.53;;;;;;;;;;4971268;28;20180;-79
2023/03/16 02:13:21;;;;;;;7.20;4.30;;;;;;;;;;4971080;28;20208;-79
2023/03/16 02:15:46;;;;;;;6.23;5.20;;;;;;;;;;4970470;28;20231;-79
2023/03/16 02:18:13;;;;;;;7.93;6.07;;;;;;;;;;4971784;28;20181;-79
2023/03/16 02:20:41;;;;;;;5.83;5.30;;;;;;;;;;4970891;28;20255;-80
2023/03/16 02:23:09;;;;;;;9.77;6.30;;;;;;;;;;4972606;28;20183;-80
2023/03/16 02:25:42;;;;;;;7.13;5.70;;;;;;;;;;4971919;28;20209;-80
2023/03/16 02:28:07;;;;;;;10.07;6.63;;;;;;;;;;4973022;28;20207;-80
2023/03/16 02:30:33;;;;;;;8.10;6.47;;;;;;;;;;4971662;28;20179;-80
2023/03/16 02:32:58;;;;;;;9.40;7.13;;;;;;;;;;4970610;28;20204;-79
2023/03/16 02:35:23;;;;;;;6.93;5.90;;;;;;;;;;4971225;28;20176;-80
2023/03/16 02:37:49;;;;;;;8.17;6.47;;;;;;;;;;4973857;28;20254;-80
2023/03/16 02:40:22;;;;;;;11.97;7.80;;;;;;;;;;4966832;28;20210;-80
2023/03/16 02:42:54;;;;;;;10.53;7.37;;;;;;;;;;4966616;28;20235;-80
2023/03/16 02:45:20;;;;;;;12.90;8.87;;;;;;;;;;4970008;28;20195;-80
2023/03/16 02:47:46;;;;;;;13.53;10.20;;;;;;;;;;4970542;28;20185;-80
2023/03/16 02:50:12;;;;;;;15.90;10.43;;;;;;;;;;4969597;28;20224;-80
2023/03/16 02:52:37;;;;;;;18.90;10.30;;;;;;;;;;4970749;28;20235;-80
2023/03/16 02:55:04;;;;;;;16.87;10.80;;;;;;;;;;4971193;28;20267;-80
2023/03/16 02:57:30;;;;;;;16.23;9.93;;;;;;;;;;4962507;28;20216;-79
2023/03/16 02:59:55;;;;;;;15.47;10.27;;;;;;;;;;4970770;28;20188;-79
2023/03/16 03:02:21;;;;;;;13.10;9.83;;;;;;;;;;4971494;28;20185;-80
2023/03/16 03:04:46;;;;;;;15.37;10.27;;;;;;;;;;4976685;28;20251;-80
2023/03/16 03:07:14;;;;;;;13.77;10.40;;;;;;;;;;4973513;28;20183;-80
2023/03/16 03:09:43;;;;;;;12.63;9.30;;;;;;;;;;4972725;28;20268;-80
2023/03/16 03:12:09;;;;;;;15.20;9.97;;;;;;;;;;4972603;28;20191;-80
2023/03/16 03:14:37;;;;;;;12.07;8.87;;;;;;;;;;4983575;28;20177;-80
2023/03/16 03:17:06;;;;;;;12.83;9.67;;;;;;;;;;4969164;28;20181;-80
2023/03/16 03:19:32;;;;;;;11.30;8.10;;;;;;;;;;4968407;28;20185;-80
2023/03/16 03:21:57;;;;;;;14.23;9.90;;;;;;;;;;4974728;28;20181;-80
2023/03/16 03:24:23;;;;;;;12.63;8.30;;;;;;;;;;4973713;28;20177;-79
2023/03/16 03:26:48;;;;;;;14.60;9.53;;;;;;;;;;4969451;28;20207;-80
2023/03/16 03:29:14;;;;;;;14.20;9.30;;;;;;;;;;4977161;28;20188;-79
2023/03/16 03:31:39;;;;;;;11.20;8.47;;;;;;;;;;4973886;28;20180;-80
2023/03/16 03:34:05;;;;;;;11.03;9.00;;;;;;;;;;4974292;28;20211;-80
2023/03/16 03:36:30;;;;;;;11.97;8.17;;;;;;;;;;4980055;28;20201;-80
2023/03/16 03:38:56;;;;;;;11.17;7.87;;;;;;;;;;4975882;28;20239;-80
2023/03/16 03:41:21;;;;;;;13.67;9.30;;;;;;;;;;4972672;28;20186;-80
2023/03/16 03:43:46;;;;;;;15.57;8.83;;;;;;;;;;4974809;28;20254;-79
2023/03/16 03:46:11;;;;;;;14.03;9.27;;;;;;;;;;4975913;28;20272;-79
2023/03/16 03:48:37;;;;;;;11.67;8.50;;;;;;;;;;4961487;28;20188;-79
2023/03/16 03:51:02;;;;;;;12.00;8.00;;;;;;;;;;4978023;28;20184;-80
2023/03/16 03:53:28;;;;;;;10.70;7.83;;;;;;;;;;4972412;28;20202;-80
2023/03/16 03:55:53;;;;;;;13.37;10.47;;;;;;;;;;4973847;28;20184;-80
2023/03/16 03:58:18;;;;;;;11.87;8.30;;;;;;;;;;4973458;28;20179;-79
2023/03/16 04:00:43;;;;;;;11.53;7.60;;;;;;;;;;4974194;28;20177;-79
2023/03/16 04:03:09;;;;;;;11.47;8.43;;;;;;;;;;4971039;28;20188;-79
2023/03/16 04:05:34;;;;;;;15.27;8.23;;;;;;;;;;4973966;28;20177;-79
2023/03/16 04:07:59;;;;;;;10.03;6.33;;;;;;;;;;4972614;28;20224;-79
2023/03/16 04:10:26;;;;;;;10.73;6.93;;;;;;;;;;4971369;28;20192;-79
2023/03/16 04:12:51;;;;;;;10.07;7.03;;;;;;;;;;4971039;28;20204;-79
2023/03/16 04:15:16;;;;;;;9.87;6.53;;;;;;;;;;4973870;28;20176;-79
2023/03/16 04:17:42;;;;;;;13.07;7.43;;;;;;;;;;4976394;28;20184;-79
2023/03/16 04:20:13;;;;;;;10.10;7.03;;;;;;;;;;4975623;28;20549;-79
2023/03/16 04:22:38;;;;;;;10.37;7.90;;;;;;;;;;4972202;28;20177;-79
2023/03/16 04:25:04;;;;;;;10.93;7.37;;;;;;;;;;4976828;28;20189;-79
2023/03/16 04:27:35;;;;;;;12.57;8.27;;;;;;;;;;4971456;28;20181;-79
2023/03/16 04:30:00;;;;;;;10.30;7.70;;;;;;;;;;4978193;28;20191;-79
2023/03/16 04:32:25;;;;;;;10.37;8.20;;;;;;;;;;4977549;28;20204;-79
2023/03/16 04:34:54;;;;;;;14.33;9.43;;;;;;;;;;4973265;28;20185;-79
2023/03/16 04:37:21;;;;;;;11.27;9.33;;;;;;;;;;4977515;28;20191;-79
2023/03/16 04:39:46;;;;;;;13.27;9.33;;;;;;;;;;4971003;28;20224;-79
2023/03/16 04:42:11;;;;;;;12.30;8.57;;;;;;;;;;4970511;28;20232;-79
2023/03/16 04:44:43;;;;;;;12.93;8.70;;;;;;;;;;4974394;28;20188;-79
2023/03/16 04:47:08;;;;;;;13.53;9.80;;;;;;;;;;4974402;28;20187;-79
2023/03/16 04:49:34;;;;;;;11.50;9.27;;;;;;;;;;4972734;28;20169;-80
2023/03/16 04:51:59;;;;;;;13.93;8.93;;;;;;;;;;4974106;28;20181;-79
2023/03/16 04:54:25;;;;;;;10.43;8.43;;;;;;;;;;4973408;28;20235;-79
2023/03/16 04:56:51;;;;;;;11.70;9.67;;;;;;;;;;4973924;28;20186;-79
2023/03/16 04:59:16;;;;;;;12.90;9.07;;;;;;;;;;4974494;28;20180;-79
2023/03/16 05:01:42;;;;;;;12.53;9.37;;;;;;;;;;4970070;28;20564;-79
2023/03/16 05:04:07;;;;;;;12.27;8.23;;;;;;;;;;4974463;28;20231;-79
2023/03/16 05:06:33;;;;;;;14.77;9.37;;;;;;;;;;4967397;28;20220;-79
2023/03/16 05:08:59;;;;;;;12.37;8.57;;;;;;;;;;4969212;28;20192;-79
2023/03/16 05:11:24;;;;;;;11.73;8.43;;;;;;;;;;4979340;28;20188;-79
2023/03/16 05:13:50;;;;;;;11.93;8.90;;;;;;;;;;4976598;28;20208;-79
2023/03/16 05:16:15;;;;;;;10.17;8.03;;;;;;;;;;4970903;28;20173;-79
2023/03/16 05:18:40;;;;;;;11.80;8.10;;;;;;;;;;4976144;28;20176;-79
2023/03/16 05:21:05;;;;;;;20.03;13.00;;;;;;;;;;4973050;28;20262;-79
2023/03/16 05:23:31;;;;;;;13.80;10.80;;;;;;;;;;4970658;28;20234;-79
2023/03/16 05:25:58;;;;;;;13.07;9.07;;;;;;;;;;4975873;28;20272;-79
2023/03/16 05:28:24;;;;;;;10.73;8.57;;;;;;;;;;4970394;28;20243;-79
2023/03/16 05:30:50;;;;;;;13.13;9.10;;;;;;;;;;4970051;28;20276;-80
2023/03/16 05:33:15;;;;;;;11.20;8.00;;;;;;;;;;4972562;28;20200;-79
2023/03/16 05:35:41;;;;;;;9.90;7.80;;;;;;;;;;4971956;28;20274;-80
2023/03/16 05:38:08;;;;;;;11.10;7.47;;;;;;;;;;4969958;28;20246;-79
2023/03/16 05:40:34;;;;;;;11.07;7.93;;;;;;;;;;4973751;28;20181;-80
2023/03/16 05:42:59;;;;;;;13.57;7.63;;;;;;;;;;4969917;28;20268;-80
2023/03/16 05:45:25;;;;;;;11.87;7.57;;;;;;;;;;4970916;28;20191;-79
2023/03/16 05:47:51;;;;;;;9.23;6.80;;;;;;;;;;4971711;28;20291;-79
2023/03/16 05:50:17;;;;;;;10.20;7.60;;;;;;;;;;4972855;28;20181;-79
2023/03/16 05:52:45;;;;;;;13.17;8.40;;;;;;;;;;4971402;28;20236;-79
2023/03/16 05:55:11;;;;;;;10.70;7.53;;;;;;;;;;4969398;28;20183;-80
2023/03/16 05:57:37;;;;;;;10.47;7.67;;;;;;;;;;4969695;28;20184;-80
2023/03/16 06:00:24;;;;;;;11.93;8.10;;;;;;;;;;4969133;28;20254;-80
2023/03/16 06:02:50;;;;;;;14.27;8.73;;;;;;;;;;4969443;28;20193;-79
2023/03/16 06:05:16;;;;;;;12.13;7.97;;;;;;;;;;4968186;28;20231;-87
2023/03/16 06:07:41;;;;;;;12.27;8.23;;;;;;;;;;4971328;28;20195;-87
2023/03/16 06:10:07;;;;;;;12.53;7.70;;;;;;;;;;4969290;28;20187;-86
2023/03/16 06:12:33;;;;;;;12.00;8.60;;;;;;;;;;4971718;28;20188;-87
2023/03/16 06:14:58;;;;;;;15.80;8.60;;;;;;;;;;4972129;28;20208;-87
2023/03/16 06:17:24;;;;;;;11.53;7.77;;;;;;;;;;4969925;28;20180;-86
2023/03/16 06:19:49;;;;;;;11.73;9.07;;;;;;;;;;4970652;28;20177;-86
2023/03/16 06:22:15;;;;;;;12.10;8.33;;;;;;;;;;4969629;28;20191;-86
2023/03/16 06:24:40;;;;;;;13.27;8.90;;;;;;;;;;4970329;28;20183;-86
2023/03/16 06:27:05;;;;;;;11.17;7.97;;;;;;;;;;4965183;28;20187;-86
2023/03/16 06:29:31;;;;;;;12.10;8.17;;;;;;;;;;4970111;28;20172;-86
2023/03/16 06:31:56;;;;;;;13.17;8.63;;;;;;;;;;4971174;28;20187;-86
2023/03/16 06:34:21;;;;;;;14.43;8.10;;;;;;;;;;4969625;28;20208;-85
2023/03/16 06:36:46;;;;;;;8.80;7.63;;;;;;;;;;4971148;28;20251;-86
2023/03/16 06:39:13;;;;;;;11.10;9.10;;;;;;;;;;4973580;28;20180;-87
2023/03/16 06:41:38;;;;;;;13.63;9.07;;;;;;;;;;4985729;28;20173;-86
2023/03/16 06:44:05;;;;;;;13.87;8.93;;;;;;;;;;4969958;28;20224;-87
2023/03/16 06:46:31;;;;;;;12.57;8.40;;;;;;;;;;4974965;28;20207;-88
2023/03/16 06:48:57;;;;;;;12.63;9.10;;;;;;;;;;4969921;28;20275;-87
2023/03/16 06:51:22;;;;;;;10.00;8.57;;;;;;;;;;4971938;28;20275;-87
2023/03/16 06:53:47;;;;;;;16.33;8.77;;;;;;;;;;4975175;28;20251;-87
2023/03/16 06:56:16;;;;;;;14.53;8.90;;;;;;;;;;4975060;28;20173;-86
2023/03/16 06:58:41;;;;;;;13.67;9.13;;;;;;;;;;4975771;28;20185;-87
2023/03/16 07:01:06;;;;;;;12.30;9.37;;;;;;;;;;4975014;28;20184;-85
2023/03/16 07:03:31;;;;;;;14.70;9.63;;;;;;;;;;4975628;28;20181;-85
2023/03/16 07:05:57;;;;;;;11.00;8.67;;;;;;;;;;4974697;28;20188;-85
2023/03/16 07:08:22;;;;;;;10.77;8.70;;;;;;;;;;4974600;28;20227;-84
2023/03/16 07:10:49;;;;;;;12.60;9.30;;;;;;;;;;4974889;28;20173;-83
2023/03/16 07:13:14;;;;;;;12.77;7.97;;;;;;;;;;4975078;28;20265;-82
2023/03/16 07:15:39;;;;;;;10.47;8.10;;;;;;;;;;4975263;28;20216;-81
2023/03/16 07:18:05;;;;;;;13.67;8.73;;;;;;;;;;4975074;28;20173;-80
2023/03/16 07:20:31;;;;;;;15.00;8.93;;;;;;;;;;4976811;28;20184;-79
2023/03/16 07:22:57;;;;;;;13.73;10.57;;;;;;;;;;4975204;28;20240;-79
2023/03/16 07:25:22;;;;;;;10.47;8.83;;;;;;;;;;4973919;28;20183;-79
2023/03/16 07:27:47;;;;;;;10.13;7.97;;;;;;;;;;4973675;28;20260;-79
2023/03/16 07:30:13;;;;;;;12.10;8.63;;;;;;;;;;4974504;28;20181;-79
2023/03/16 07:32:38;;;;;;;10.60;7.60;;;;;;;;;;4975072;28;20196;-79
2023/03/16 07:35:04;;;;;;;8.83;7.20;;;;;;;;;;4981286;28;20173;-79
2023/03/16 07:37:29;;;;;;;11.30;7.43;;;;;;;;;;4974644;28;20173;-78
2023/03/16 07:39:55;;;;;;;10.47;7.50;;;;;;;;;;4975271;28;20168;-78
2023/03/16 07:42:21;;;;;;;10.27;7.13;;;;;;;;;;4972684;28;20269;-78
2023/03/16 07:44:46;;;;;;;6.83;6.13;;;;;;;;;;4974724;28;20256;-78
2023/03/16 07:47:12;;;;;;;8.40;5.73;;;;;;;;;;4974814;28;20168;-77
2023/03/16 07:49:37;;;;;;;8.27;5.53;;;;;;;;;;4976175;28;20177;-77
2023/03/16 07:52:05;;;;;;;6.63;5.33;;;;;;;;;;4990711;28;20181;-77
2023/03/16 07:54:31;;;;;;;7.93;5.47;;;;;;;;;;4970135;28;20197;-77
2023/03/16 07:56:56;;;;;;;6.53;5.40;;;;;;;;;;4974659;28;20204;-77
2023/03/16 07:59:21;;;;;;;6.77;5.43;;;;;;;;;;4972093;28;20173;-77
2023/03/16 08:01:47;;;;;;;7.13;6.23;;;;;;;;;;4976526;28;20192;-77
2023/03/16 08:04:12;;;;;;;7.80;5.97;;;;;;;;;;4974691;28;20188;-76
2023/03/16 08:06:38;;;;;;;7.83;6.17;;;;;;;;;;4973203;28;20177;-77
2023/03/16 08:09:03;;;;;;;8.47;6.00;;;;;;;;;;4968398;28;20211;-77
2023/03/16 08:11:29;;;;;;;7.23;5.87;;;;;;;;;;4973899;28;20192;-77
2023/03/16 08:13:55;;;;;;;8.80;6.07;;;;;;;;;;4974229;28;20208;-77
2023/03/16 08:16:24;;;;;;;8.43;5.80;;;;;;;;;;4977128;28;20172;-77
2023/03/16 08:18:50;;;;;;;8.77;5.87;;;;;;;;;;4973732;28;20276;-77
2023/03/16 08:21:16;;;;;;;8.03;5.73;;;;;;;;;;4973922;28;20173;-76
2023/03/16 08:23:47;;;;;;;6.93;5.70;;;;;;;;;;4971480;28;20252;-76
2023/03/16 08:26:13;;;;;;;7.70;5.23;;;;;;;;;;4971992;28;20177;-76
2023/03/16 08:28:38;;;;;;;5.67;4.60;;;;;;;;;;4973615;28;20173;-76
2023/03/16 08:31:06;;;;;;;5.67;5.10;;;;;;;;;;4974965;28;20236;-76
2023/03/16 08:33:31;;;;;;;8.90;5.73;;;;;;;;;;4970913;28;20192;-76
2023/03/16 08:35:57;;;;;;;6.87;4.90;;;;;;;;;;4973654;28;20165;-76
2023/03/16 08:38:22;;;;;;;7.27;4.80;;;;;;;;;;4976030;28;20274;-75
2023/03/16 08:40:49;;;;;;;7.10;5.50;;;;;;;;;;4973825;28;20200;-75
2023/03/16 08:43:15;;;;;;;8.37;5.37;;;;;;;;;;4973021;28;20336;-75
2023/03/16 08:45:41;;;;;;;6.10;5.33;;;;;;;;;;4973792;28;20189;-75
2023/03/16 08:48:07;;;;;;;11.47;6.00;;;;;;;;;;4973030;28;20177;-75
2023/03/16 08:50:32;;;;;;;6.97;5.20;;;;;;;;;;4973218;28;20184;-75
2023/03/16 08:52:58;;;;;;;6.50;4.70;;;;;;;;;;4973719;28;20240;-75
2023/03/16 08:55:23;;;;;;;5.87;4.27;;;;;;;;;;4973726;28;20308;-75
2023/03/16 08:57:49;;;;;;;7.57;5.77;;;;;;;;;;4973032;28;20177;-75
2023/03/16 09:00:14;;;;;;;10.27;5.27;;;;;;;;;;4973517;28;20183;-75
2023/03/16 09:02:40;;;;;;;8.37;6.03;;;;;;;;;;4973426;28;20173;-76
2023/03/16 09:05:09;;;;;;;6.90;5.57;;;;;;;;;;4973519;28;20231;-76
2023/03/16 09:07:35;;;;;;;8.30;5.10;;;;;;;;;;4972396;28;20957;-76
2023/03/16 09:10:00;;;;;;;5.03;4.30;;;;;;;;;;4973254;28;20177;-76
2023/03/16 09:12:26;;;;;;;7.53;4.57;;;;;;;;;;4973937;28;20216;-76
2023/03/16 09:14:53;;;;;;;9.63;5.33;;;;;;;;;;4973162;28;20184;-76
2023/03/16 09:17:19;;;;;;;5.17;4.60;;;;;;;;;;4972663;28;20392;-76
2023/03/16 09:19:45;;;;;;;6.60;4.90;;;;;;;;;;4972234;28;20177;-76
2023/03/16 09:22:10;;;;;;;8.37;7.30;;;;;;;;;;4972202;28;20208;-76
2023/03/16 09:24:36;;;;;;;9.40;7.13;;;;;;;;;;4973193;28;20188;-76
2023/03/16 09:27:01;;;;;;;7.30;6.20;;;;;;;;;;4972695;28;20270;-76
2023/03/16 09:29:27;;;;;;;11.87;10.63;;;;;;;;;;4972677;28;20247;-77
2023/03/16 09:31:52;;;;;;;7.30;6.60;;;;;;;;;;4972186;28;20181;-77
2023/03/16 09:34:17;;;;;;;6.10;4.80;;;;;;;;;;4970819;28;20207;-77
2023/03/16 09:36:43;;;;;;;4.70;4.17;;;;;;;;;;4970250;28;20195;-76
2023/03/16 09:39:10;;;;;;;8.00;7.20;;;;;;;;;;4972074;28;20184;-77
2023/03/16 09:41:40;;;;;;;5.40;4.50;;;;;;;;;;4971652;28;20180;-77
2023/03/16 09:44:29;;;;;;;7.23;6.57;;;;;;;;;;4971844;28;20240;-77
2023/03/16 09:46:57;;;;;;;7.37;5.87;;;;;;;;;;4961488;28;20193;-77
2023/03/16 09:49:24;;;;;;;3.80;3.30;;;;;;;;;;4975714;28;20208;-77
2023/03/16 09:51:51;;;;;;;6.33;3.60;;;;;;;;;;4971840;28;20194;-77
2023/03/16 09:54:38;;;;;;;3.37;3.10;;;;;;;;;;4971603;28;20235;-78
2023/03/16 09:57:03;;;;;;;4.50;3.83;;;;;;;;;;4972396;28;20188;-78
2023/03/16 09:59:29;;;;;;;5.20;3.57;;;;;;;;;;4971696;28;20267;-78
2023/03/16 10:01:54;;;;;;;5.17;4.77;;;;;;;;;;4972222;28;20172;-79
2023/03/16 10:04:39;;;;;;;4.13;3.73;;;;;;;;;;4971709;28;20191;-79
2023/03/16 10:07:14;;;;;;;9.67;5.70;;;;;;;;;;4970021;28;20188;-79
2023/03/16 10:09:46;;;;;;;9.70;7.67;;;;;;;;;;4970179;28;20267;-79
2023/03/16 10:12:13;;;;;;;6.10;5.10;;;;;;;;;;4985077;28;20181;-79
2023/03/16 10:14:38;;;;;;;7.73;6.40;;;;;;;;;;4966657;28;20200;-79
2023/03/16 10:17:18;;;;;;;5.50;4.83;;;;;;;;;;4968517;28;20243;-79
2023/03/16 10:19:56;;;;;;;4.47;3.97;;;;;;;;;;4971942;28;20223;-79
2023/03/16 10:22:32;;;;;;;5.77;5.23;;;;;;;;;;4970410;28;20183;-79
2023/03/16 10:25:11;;;;;;;3.87;3.50;;;;;;;;;;4965750;28;20180;-80
2023/03/16 10:27:38;;;;;;;6.77;3.83;;;;;;;;;;4971773;28;20161;-80
2023/03/16 10:30:13;;;;;;;4.57;3.63;;;;;;;;;;4971943;28;20172;-79
2023/03/16 10:32:38;;;;;;;4.30;3.20;;;;;;;;;;4971454;28;20174;-79
2023/03/16 10:35:24;;;;;;;4.23;3.83;;;;;;;;;;4954870;28;20208;-79
2023/03/16 10:37:50;;;;;;;6.63;3.90;;;;;;;;;;4966381;28;20193;-79
2023/03/16 10:40:19;;;;;;;5.00;3.30;;;;;;;;;;4971242;28;20177;-79
2023/03/16 10:42:45;;;;;;;6.13;3.40;;;;;;;;;;4971441;28;20300;-79
2023/03/16 10:45:28;;;;;;;7.17;3.23;;;;;;;;;;4971901;28;20186;-79
2023/03/16 10:48:04;;;;;;;6.00;3.87;;;;;;;;;;4971455;28;20280;-78
2023/03/16 10:50:31;;;;;;;4.13;2.83;;;;;;;;;;4974159;28;20191;-79
2023/03/16 10:52:57;;;;;;;3.73;3.23;;;;;;;;;;4971616;28;20216;-79
2023/03/16 10:55:23;;;;;;;4.00;3.37;;;;;;;;;;4971565;28;20271;-79
2023/03/16 10:57:50;;;;;;;3.97;3.63;;;;;;;;;;4971340;28;20178;-78
2023/03/16 11:00:22;;;;;;;4.77;2.97;;;;;;;;;;4987518;28;20258;-79
2023/03/16 11:02:48;;;;;;;3.47;2.93;;;;;;;;;;4971180;28;20254;-79
2023/03/16 11:05:16;;;;;;;11.07;3.40;;;;;;;;;;4970854;28;20269;-79
2023/03/16 11:07:48;;;;;;;3.73;2.93;;;;;;;;;;4971645;28;20212;-79
2023/03/16 11:10:34;;;;;;;3.33;2.90;;;;;;;;;;4968794;28;20191;-79
2023/03/16 11:13:10;;;;;;;2.73;2.53;;;;;;;;;;4971550;28;20198;-79
2023/03/16 11:15:37;;;;;;;7.40;2.70;;;;;;;;;;4963941;28;20185;-79
2023/03/16 11:18:02;;;;;;;4.07;2.57;;;;;;;;;;4971381;28;20236;-79
2023/03/16 11:20:29;;;;;;;2.50;2.30;;;;;;;;;;4972466;28;20180;-79
2023/03/16 11:22:55;;;;;;;4.20;2.77;;;;;;;;;;4971215;28;20279;-78
2023/03/16 11:25:20;;;;;;;3.07;2.50;;;;;;;;;;4970947;28;20267;-79
2023/03/16 11:28:05;;;;;;;5.10;4.20;;;;;;;;;;4972466;28;20185;-79
2023/03/16 11:30:37;;;;;;;3.30;2.60;;;;;;;;;;4971020;28;20191;-79
2023/03/16 11:33:06;;;;;;;3.17;2.60;;;;;;;;;;4983845;28;20201;-79
2023/03/16 11:35:46;;;;;;;4.90;4.07;;;;;;;;;;4983545;28;20209;-79
2023/03/16 11:38:16;;;;;;;2.50;2.30;;;;;;;;;;4974889;28;20231;-79
2023/03/16 11:41:00;;;;;;;3.30;3.00;;;;;;;;;;4973091;28;20184;-79
2023/03/16 11:43:26;;;;;;;2.60;2.10;;;;;;;;;;4974191;28;20326;-79
2023/03/16 11:45:56;;;;;;;3.63;1.97;;;;;;;;;;4977307;28;20211;-79
2023/03/16 11:48:36;;;;;;;3.63;2.47;;;;;;;;;;4975693;28;20274;-79
2023/03/16 11:51:02;;;;;;;2.40;2.20;;;;;;;;;;4972911;28;20192;-79
2023/03/16 11:53:40;;;;;;;2.20;2.00;;;;;;;;;;4976213;28;20214;-79
2023/03/16 11:56:14;;;;;;;2.50;2.30;;;;;;;;;;4979734;28;20240;-79
2023/03/16 11:58:42;;;;;;;4.20;2.07;;;;;;;;;;4972368;28;20199;-79
2023/03/16 12:01:31;;;;;;;3.27;2.20;;;;;;;;;;4976475;28;20358;-79
2023/03/16 12:04:17;;;;;;;2.77;2.17;;;;;;;;;;4974589;28;20190;-79
2023/03/16 12:07:01;;;;;;;2.97;2.30;;;;;;;;;;4972297;28;20180;-79
2023/03/16 12:09:26;;;;;;;3.07;2.10;;;;;;;;;;4989807;28;20224;-79
2023/03/16 12:11:55;;;;;;;2.70;2.23;;;;;;;;;;4970085;28;20210;-80
2023/03/16 12:14:43;;;;;;;3.17;2.03;;;;;;;;;;4973601;28;20256;-80
2023/03/16 12:17:13;;;;;;;5.57;2.90;;;;;;;;;;4973372;28;20217;-80
2023/03/16 12:19:53;;;;;;;2.10;1.90;;;;;;;;;;4973875;28;20187;-80
2023/03/16 12:22:20;;;;;;;3.13;2.33;;;;;;;;;;4978607;28;20181;-80
2023/03/16 12:24:46;;;;;;;2.83;2.10;;;;;;;;;;4980068;28;20179;-80
2023/03/16 12:27:21;;;;;;;2.47;1.83;;;;;;;;;;4973601;28;20181;-80
2023/03/16 12:29:51;;;;;;;3.47;2.20;;;;;;;;;;4967444;28;20193;-80
2023/03/16 12:32:39;;;;;;;1.93;1.67;;;;;;;;;;4969265;28;20284;-80
2023/03/16 12:35:29;;;;;;;2.17;1.57;;;;;;;;;;4972856;28;20236;-80
2023/03/16 12:38:10;;;;;;;3.20;2.20;;;;;;;;;;4979152;28;20215;-80
2023/03/16 12:40:48;;;;;;;2.90;2.07;;;;;;;;;;4970243;28;20259;-80
2023/03/16 12:43:14;;;;;;;7.40;2.43;;;;;;;;;;4973322;28;20260;-80
2023/03/16 12:45:47;;;;;;;2.20;2.00;;;;;;;;;;4974114;28;20204;-80
2023/03/16 12:48:21;;;;;;;1.87;1.77;;;;;;;;;;4974134;28;20236;-80
2023/03/16 12:50:49;;;;;;;2.50;2.20;;;;;;;;;;4967553;28;20181;-80
2023/03/16 12:53:25;;;;;;;3.00;2.37;;;;;;;;;;4973375;28;20218;-80
2023/03/16 12:55:50;;;;;;;4.50;2.47;;;;;;;;;;4973682;28;20174;-80
2023/03/16 12:58:16;;;;;;;3.90;2.03;;;;;;;;;;4972693;28;20180;-80
2023/03/16 13:00:41;;;;;;;3.33;2.20;;;;;;;;;;4973149;28;20249;-80
2023/03/16 13:03:14;;;;;;;3.27;2.50;;;;;;;;;;4972933;28;20226;-80
2023/03/16 13:05:44;;;;;;;11.23;2.90;;;;;;;;;;4973249;28;20210;-80
2023/03/16 13:08:12;;;;;;;2.50;2.10;;;;;;;;;;4971691;28;20194;-81
2023/03/16 13:10:38;;;;;;;2.83;2.40;;;;;;;;;;4972780;28;20237;-81
2023/03/16 13:13:13;;;;;;;4.53;2.77;;;;;;;;;;4975617;28;20212;-80
2023/03/16 13:15:39;;;;;;;4.10;2.50;;;;;;;;;;4978744;28;20184;-81
2023/03/16 13:18:07;;;;;;;3.00;2.53;;;;;;;;;;4973082;28;20189;-79
2023/03/16 13:20:34;;;;;;;2.73;2.30;;;;;;;;;;4969697;28;20184;-79
2023/03/16 13:23:17;;;;;;;4.00;2.83;;;;;;;;;;4978579;28;20269;-79
2023/03/16 13:26:02;;;;;;;3.07;2.80;;;;;;;;;;4971052;28;20195;-79
2023/03/16 13:28:34;;;;;;;2.50;2.30;;;;;;;;;;4957824;28;20191;-79
2023/03/16 13:30:59;;;;;;;3.33;2.80;;;;;;;;;;4981922;28;20179;-79
2023/03/16 13:33:26;;;;;;;3.30;2.83;;;;;;;;;;4969031;28;20262;-83
2023/03/16 13:35:53;;;;;;;3.07;2.00;;;;;;;;;;4964596;28;20250;-86
2023/03/16 13:38:21;;;;;;;3.30;3.00;;;;;;;;;;4971099;28;20180;-86
2023/03/16 13:40:51;;;;;;;4.50;2.67;;;;;;;;;;4971243;28;20208;-86
2023/03/16 13:43:36;;;;;;;4.10;3.30;;;;;;;;;;4972101;28;20263;-86
2023/03/16 13:46:11;;;;;;;2.20;2.00;;;;;;;;;;4972402;28;20183;-86
2023/03/16 13:48:39;;;;;;;2.30;2.10;;;;;;;;;;4964672;28;20180;-86
2023/03/16 13:51:12;;;;;;;2.50;2.30;;;;;;;;;;4971891;28;20195;-86
2023/03/16 13:53:39;;;;;;;5.17;2.60;;;;;;;;;;4980815;28;20234;-86
2023/03/16 13:56:05;;;;;;;3.10;2.20;;;;;;;;;;4972301;28;20184;-85
2023/03/16 13:58:32;;;;;;;2.33;2.13;;;;;;;;;;4963782;28;20235;-85
2023/03/16 14:00:59;;;;;;;4.13;2.00;;;;;;;;;;4973128;28;20235;-85
2023/03/16 14:03:31;;;;;;;2.10;1.87;;;;;;;;;;4971782;28;20862;-86
2023/03/16 14:05:56;;;;;;;2.73;2.53;;;;;;;;;;4968790;28;20247;-85
2023/03/16 14:08:22;;;;;;;2.40;2.10;;;;;;;;;;4971640;28;20271;-86
2023/03/16 14:10:49;;;;;;;2.77;2.10;;;;;;;;;;4974861;28;20211;-86
2023/03/16 14:13:44;;;;;;;2.30;2.10;;;;;;;;;;4970882;28;20214;-86
2023/03/16 14:16:09;;;;;;;3.47;2.50;;;;;;;;;;4959467;28;20220;-86
2023/03/16 14:18:36;;;;;;;3.23;1.90;;;;;;;;;;4970128;28;20221;-84
2023/03/16 14:21:20;;;;;;;2.20;1.93;;;;;;;;;;4968952;28;20191;-84
2023/03/16 14:23:46;;;;;;;2.87;2.17;;;;;;;;;;4969573;28;20192;-83
2023/03/16 14:26:14;;;;;;;3.63;2.20;;;;;;;;;;4969271;28;20193;-84
2023/03/16 14:28:39;;;;;;;2.27;2.07;;;;;;;;;;4968400;28;20184;-84
2023/03/16 14:31:06;;;;;;;3.30;2.10;;;;;;;;;;4981125;28;20225;-84
2023/03/16 14:33:33;;;;;;;2.20;2.00;;;;;;;;;;4971102;28;20282;-84
2023/03/16 14:36:06;;;;;;;2.53;1.93;;;;;;;;;;4970876;28;20252;-84
2023/03/16 14:38:34;;;;;;;3.00;2.20;;;;;;;;;;4969348;28;20243;-84
2023/03/16 14:41:03;;;;;;;2.87;2.07;;;;;;;;;;4973981;28;20187;-84
2023/03/16 14:43:31;;;;;;;2.63;2.20;;;;;;;;;;4971182;28;20312;-84